Terminal Aerodrome Forecast
Issued by NWS

Home | Current Version | Previous Version | Text Only | Print | Product List | Glossary On
Versions: 1 2 3 4 5 6 7 8 9 10 11 12 13 14 15 16 17 18 19 20 21 22 23 24 25 26 27 28 29 30 31 32 33 34 35 36
000
FTUS43 KDMX 251139
TAFMCW
TAF
KMCW 251139Z 2512/2612 19012KT P6SM OVC007
     FM251400 17010KT P6SM SCT007 BKN150
     FM251700 19011KT P6SM BKN150
     FM260100 12007KT P6SM OVC170
     FM260700 15004KT P6SM OVC050
     FM261000 35007KT P6SM OVC030=

USA.gov is the U.S. government's official web portal to all federal, state and local government web resources and services.